Weather observations for the past three days for
Fort Dodge
Metric (Imperial)
Date Time (cdt) Wind (kph) Vis. (km) Weather Sky Cond. Temperature (ºC) Relative Humidity Wind Chill (°C) Heat Index (°C) Pressure Precipitation (cm)
Air Dwpt 6 hour altimeter (cm) sea level (mb) 1 hr 3 hr 6 hr
Max. Min.
05 16:56 NW 15 G 28 16.09 Mostly Cloudy BKN080 12.8 -5 29% 75.82 0.0
05 15:56 N 20 16.09 Mostly Cloudy BKN080 13.3 -5 28% 75.82 0.0
05 14:56 NW 19 G 33 16.09 Partly Cloudy SCT075 13.9 -5 27% 75.87 0.0
05 13:56 W 22 G 35 16.09 Partly Cloudy SCT075 12.8 -4.4 30% 75.9 0.0
05 12:56 NW 17 G 37 16.09 Partly Cloudy SCT075 13.3 -5 28% 75.9 0.0
05 11:56 NW 22 G 35 16.09 Partly Cloudy SCT070 12.8 -5 29% 75.9 0.0
05 09:56 NW 15 G 26 16.09 NULL NULL 11.1 -2.8 38% 75.92 0.0
04 22:56 NW 9 16.09 Fair CLR 11.1 -2.2 40% 75.62 1009.3
04 21:56 NW 11 16.09 Fair CLR 11.7 -1.1 41% 75.64 1009.3
04 20:56 NW 19 G 28 16.09 Mostly Cloudy BKN120 13.3 -1.1 37% 75.54 1008.2
04 19:56 NW 15 G 28 16.09 Light Rain SCT075 OVC100 13.3 -1.1 37% 75.44 1007.2
04 18:56 NW 20 G 41 16.09 Mostly Cloudy FEW095 BKN120 15.6 -1.7 23.9 15.6 31% 75.39 1006.4
04 17:56 NW 26 G 35 16.09 Fair CLR 18.9 -1.1 26% 75.36 1005.7
04 16:56 NW 24 G 41 16.09 Fair CLR 20.6 0.6 26% 75.23 1004.1
04 15:56 NW 30 G 43 16.09 Fair CLR 22.2 0.6 24% 75.18 1003.3
04 14:56 NW 17 G 39 16.09 Fair CLR 22.8 1.1 24% 75.18 1003.1
04 13:56 N 20 G 31 16.09 Fair CLR 23.3 2.8 26% 75.13 1002.5
04 12:56 NW 15 16.09 Fair CLR 23.3 6.7 25 10 34% 75.08 1001.8
04 11:56 NW 22 G 35 16.09 Fair CLR 24.4 6.1 31% 25 75.06 1001.4
04 10:56 W 33 G 46 16.09 Fair and Breezy CLR 23.3 5 31% 75.06 1001.3
04 09:56 W 28 G 39 16.09 Fair CLR 21.1 5.6 37% 75.06 1001.4
04 08:56 SW 22 16.09 Fair CLR 17.8 5.6 45% 75.08 1001.9
04 07:56 SW 17 16.09 Partly Cloudy SCT110 12.8 5.6 62% 75.13 1002.6
04 06:56 S 6 16.09 Partly Cloudy SCT110 9.4 2.8 11.1 7.8 64% 75.13 1002.6
04 05:56 S 6 16.09 A Few Clouds FEW100 9.4 2.2 61% 75.16 1003.1
04 04:56 S 9 16.09 Fair CLR 8.9 2.2 63% 8 75.21 1003.7
04 03:56 SE 6 16.09 Fair CLR 8.9 1.7 61% 75.21 1003.7
04 02:56 S 7 16.09 Fair CLR 10 1.7 57% 9 75.29 1004.7
04 01:56 Calm 16.09 Fair CLR 9.4 2.8 64% 75.34 1005.6
04 00:56 S 6 16.09 Fair CLR 10 2.2 22.2 9.4 59% 75.41 1006.4
03 23:56 Calm 16.09 Fair CLR 10.6 1.7 54% 75.44 1007.0
03 22:56 SW 6 16.09 Fair CLR 12.2 1.7 49% 75.49 1007.7
03 21:56 Calm 16.09 Fair CLR 13.9 0.6 41% 75.54 1008.2
03 20:56 W 7 16.09 Fair CLR 15.6 0.6 36% 75.54 1008.1
03 19:56 W 7 16.09 Fair CLR 19.4 0.6 29% 75.54 1008.0
03 18:56 NW 13 16.09 Fair CLR 22.2 -0.6 23.3 21.7 22% 75.54 1008.2
03 17:56 NW 15 16.09 Fair CLR 22.8 -0.6 21% 75.57 1008.5
03 16:56 NW 15 16.09 Fair CLR 23.3 0 21% 75.59 1008.6
03 15:56 NW 22 G 31 16.09 Fair CLR 23.3 -0.6 20% 75.62 1008.9
03 14:56 NW 24 G 39 16.09 Fair CLR 22.8 0 22% 75.64 1009.4
03 13:56 N 22 G 37 16.09 Fair CLR 22.2 0 23% 75.67 1009.6
03 12:56 N 24 G 37 16.09 Fair CLR 21.7 1.1 21.7 9.4 26% 75.67 1009.7
03 11:56 NW 20 G 44 16.09 Fair CLR 20.6 2.8 31% 75.69 1009.9
03 10:56 N 15 G 33 16.09 Fair CLR 19.4 2.8 33% 75.69 1010.0
03 09:56 NW 20 G 35 16.09 Fair CLR 17.8 2.2 35% 75.67 1009.9
03 08:56 NW 20 G 33 16.09 Fair CLR 15.6 1.7 39% 75.64 1009.7
03 07:56 W 17 16.09 Fair CLR 11.7 2.2 52% 75.64 1009.8
03 06:56 SW 15 16.09 Fair CLR 9.4 1.1 12.2 9.4 56% 7 75.62 1009.4
03 05:56 SW 24 16.09 Fair CLR 10.6 0.6 50% 75.59 1009.0
03 04:56 SW 22 G 37 16.09 Fair CLR 11.7 0.6 47% 75.64 1009.6
03 03:56 SW 20 16.09 Mostly Cloudy BKN110 11.7 0 45% 75.69 1010.4
03 02:56 S 26 16.09 Mostly Cloudy BKN120 11.1 0 47% 75.72 1010.9
03 01:56 S 24 16.09 Mostly Cloudy BKN100 12.2 -0.6 42% 75.82 1012.2
03 00:56 S 20 G 33 16.09 A Few Clouds FEW120 12.2 -1.1 17.2 12.2 40% 75.84 1012.5
02 23:56 S 17 16.09 Fair CLR 12.8 -1.1 38% 75.92 1013.4
02 22:56 S 17 16.09 Fair CLR 13.3 -1.7 36% 75.95 1014.1
02 21:56 S 13 16.09 Fair CLR 12.8 -1.1 38% 76.02 1015.0
02 20:56 S 15 16.09 A Few Clouds FEW110 13.9 -1.1 36% 76.05 1015.4
02 19:56 SW 15 16.09 A Few Clouds FEW120 16.1 -1.7 30% 76.05 1015.5
02 18:56 W 22 16.09 Fair CLR 17.2 -1.1 18.9 15 29% 76.1 1016.2
02 17:56 W 11 16.09 Fair CLR 18.3 -1.7 26% 76.12 1016.8
Date Time (cdt) Wind (kph) Vis. (km) Weather Sky Cond. Air Dwpt Max. Min. Relative Humidity Wind Chill (°C) Heat Index (°C) altimeter (cm) sea level (mb) 1 hr 3 hr 6 hr
6 hour
Temperature (ºC) Pressure Precipitation (cm)